Holloway, Ohio
Current Conditions -  °F | °C
As of 9:53 AM on Monday 22 Dec 2014 (Local Time) from KHLG Reporting Station
Overcast Overcast  
Wind Chill: 24°   Ceiling: 5000
Heat Index: 32°   Visibility: 8mi
Dew Point: 26°   Wind: 10mph
Humidity: 79%   Direction: 100°E
Pressure: 30.08"   Gusts: NA
Location:  40.16°N, 81.13°W
Report Text: KHLG 221453Z 10009KT 8SM OVC050 00/M03 A3008 RMK AO2 SLP203 T00001033 58003
Loading
Personal Weather Stations






























Interactive Weather Map New forecast layout! Learn more

10-Day Weather Forecast

Advertisements
Track Severe Weather on mobile